Time;durP1;ratioP1;P1;durP2;ratioP2;P2;SDS_P1;SDS_P2;PMS_P1;PMS_P2;Temp;Humidity;BMP_temperature;BMP_pressure;BME280_temperature;BME280_humidity;BME280_pressure;Samples;Min_cycle;Max_cycle;Signal;HPM_P1;HPM_P2
2022/08/07 00:02:09;;;;;;;3.72;2.75;;;;;;;;;;5066740;28;20234;-17
2022/08/07 00:04:56;;;;;;;4.35;2.60;;;;;;;;;;5070472;28;20230;-17
2022/08/07 00:07:24;;;;;;;3.85;2.47;;;;;;;;;;5071816;28;20234;-17
2022/08/07 00:09:53;;;;;;;2.72;2.45;;;;;;;;;;5071759;28;20739;-17
2022/08/07 00:12:42;;;;;;;4.05;2.60;;;;;;;;;;5072467;28;20280;-17
2022/08/07 00:15:24;;;;;;;5.65;2.47;;;;;;;;;;5071941;28;20226;-17
2022/08/07 00:18:05;;;;;;;3.40;2.50;;;;;;;;;;5067079;28;20297;-18
2022/08/07 00:20:32;;;;;;;4.13;2.63;;;;;;;;;;5071925;28;20233;-17
2022/08/07 00:23:00;;;;;;;4.38;2.45;;;;;;;;;;5072000;28;21036;-17
2022/08/07 00:25:28;;;;;;;4.25;2.40;;;;;;;;;;5071852;28;20274;-17
2022/08/07 00:28:07;;;;;;;3.85;2.58;;;;;;;;;;5070429;28;21486;-17
2022/08/07 00:30:37;;;;;;;4.75;2.70;;;;;;;;;;5065079;28;20299;-17
2022/08/07 00:33:05;;;;;;;3.03;2.75;;;;;;;;;;5071649;28;20332;-17
2022/08/07 00:35:34;;;;;;;5.68;2.60;;;;;;;;;;5070278;28;20284;-17
2022/08/07 00:38:03;;;;;;;3.20;2.63;;;;;;;;;;5059502;28;20296;-17
2022/08/07 00:40:31;;;;;;;2.55;2.30;;;;;;;;;;5070297;28;20313;-17
2022/08/07 00:43:06;;;;;;;3.58;2.78;;;;;;;;;;5071454;28;20252;-17
2022/08/07 00:45:37;;;;;;;2.80;2.42;;;;;;;;;;5062311;28;20234;-17
2022/08/07 00:48:06;;;;;;;3.22;2.60;;;;;;;;;;5057471;28;20236;-17
2022/08/07 00:50:37;;;;;;;3.65;2.90;;;;;;;;;;5070371;28;20234;-17
2022/08/07 00:53:17;;;;;;;2.80;2.30;;;;;;;;;;5071660;28;20321;-17
2022/08/07 00:55:47;;;;;;;4.00;2.78;;;;;;;;;;5071386;28;20261;-17
2022/08/07 00:58:29;;;;;;;3.60;2.60;;;;;;;;;;5071508;28;20329;-17
2022/08/07 01:00:57;;;;;;;3.25;2.60;;;;;;;;;;5071254;28;20964;-17
2022/08/07 01:03:26;;;;;;;2.70;2.20;;;;;;;;;;5069296;28;20226;-17
2022/08/07 01:06:14;;;;;;;4.07;2.78;;;;;;;;;;5072082;28;20229;-17
2022/08/07 01:08:44;;;;;;;4.10;2.35;;;;;;;;;;5071048;28;20680;-17
2022/08/07 01:11:20;;;;;;;4.05;2.50;;;;;;;;;;5071224;28;20331;-17
2022/08/07 01:14:07;;;;;;;3.53;2.35;;;;;;;;;;5070793;28;20241;-17
2022/08/07 01:16:35;;;;;;;2.95;2.42;;;;;;;;;;5070985;28;20971;-17
2022/08/07 01:19:04;;;;;;;3.42;2.97;;;;;;;;;;5071403;28;20353;-17
2022/08/07 01:21:48;;;;;;;3.80;2.60;;;;;;;;;;5070332;28;20619;-17
2022/08/07 01:24:15;;;;;;;3.20;2.28;;;;;;;;;;5069810;28;20225;-17
2022/08/07 01:26:47;;;;;;;3.28;2.47;;;;;;;;;;5069443;28;20229;-17
2022/08/07 01:29:18;;;;;;;3.45;2.58;;;;;;;;;;5069010;28;20268;-17
2022/08/07 01:31:46;;;;;;;4.75;2.75;;;;;;;;;;5069425;28;21108;-17
2022/08/07 01:34:16;;;;;;;2.92;2.60;;;;;;;;;;5068186;28;20236;-17
2022/08/07 01:36:46;;;;;;;3.38;2.63;;;;;;;;;;5069998;28;20297;-17
2022/08/07 01:39:24;;;;;;;4.82;2.78;;;;;;;;;;5057435;28;20244;-17
2022/08/07 01:42:07;;;;;;;2.72;2.50;;;;;;;;;;5070669;28;20633;-17
2022/08/07 01:44:55;;;;;;;3.25;2.47;;;;;;;;;;5070924;28;20233;-17
2022/08/07 01:47:22;;;;;;;2.70;2.40;;;;;;;;;;5070094;28;20243;-17
2022/08/07 01:50:09;;;;;;;5.63;2.80;;;;;;;;;;5070880;28;20704;-17
2022/08/07 01:52:40;;;;;;;3.08;2.47;;;;;;;;;;5071351;28;20301;-17
2022/08/07 01:55:22;;;;;;;3.00;2.60;;;;;;;;;;5070268;28;20239;-17
2022/08/07 01:57:51;;;;;;;3.20;2.90;;;;;;;;;;5069998;28;20221;-17
2022/08/07 02:00:33;;;;;;;3.58;2.80;;;;;;;;;;5070178;28;20244;-17
2022/08/07 02:03:07;;;;;;;3.35;2.83;;;;;;;;;;5056404;28;20657;-17
2022/08/07 02:05:48;;;;;;;3.67;2.80;;;;;;;;;;5070010;28;20306;-17
2022/08/07 02:08:27;;;;;;;3.88;2.90;;;;;;;;;;5069336;28;20237;-17
2022/08/07 02:10:57;;;;;;;6.03;2.60;;;;;;;;;;5070121;28;21189;-17
2022/08/07 02:13:25;;;;;;;5.35;3.10;;;;;;;;;;5070415;28;20225;-17
2022/08/07 02:16:13;;;;;;;4.32;2.40;;;;;;;;;;5069276;28;20232;-17
2022/08/07 02:18:42;;;;;;;6.57;3.15;;;;;;;;;;5070382;28;20225;-17
2022/08/07 02:21:13;;;;;;;4.70;2.80;;;;;;;;;;5068799;28;20233;-17
2022/08/07 02:23:44;;;;;;;3.30;2.58;;;;;;;;;;5070590;28;20261;-17
2022/08/07 02:26:11;;;;;;;2.85;2.60;;;;;;;;;;5070081;28;20241;-17
2022/08/07 02:28:58;;;;;;;3.13;2.50;;;;;;;;;;5069645;28;20280;-17
2022/08/07 02:31:26;;;;;;;4.10;2.63;;;;;;;;;;5068534;28;20229;-17
2022/08/07 02:33:56;;;;;;;3.20;2.60;;;;;;;;;;5069777;28;20257;-17
2022/08/07 02:36:30;;;;;;;5.00;2.80;;;;;;;;;;5069735;28;21100;-16
2022/08/07 02:39:01;;;;;;;6.00;3.03;;;;;;;;;;5069785;28;20245;-17
2022/08/07 02:41:42;;;;;;;3.15;2.83;;;;;;;;;;5068275;28;20314;-17
2022/08/07 02:44:20;;;;;;;3.70;3.08;;;;;;;;;;5069829;28;20320;-17
2022/08/07 02:46:49;;;;;;;5.18;2.95;;;;;;;;;;5069688;28;20232;-17
2022/08/07 02:49:19;;;;;;;3.42;2.65;;;;;;;;;;5069908;28;20775;-17
2022/08/07 02:52:08;;;;;;;3.83;3.42;;;;;;;;;;5069931;28;20236;-17
2022/08/07 02:54:40;;;;;;;5.22;2.97;;;;;;;;;;5061708;28;20226;-17
2022/08/07 02:57:08;;;;;;;3.42;3.03;;;;;;;;;;5069783;28;20319;-17
2022/08/07 02:59:36;;;;;;;3.97;3.20;;;;;;;;;;5069481;28;20238;-17
2022/08/07 03:02:03;;;;;;;3.47;2.97;;;;;;;;;;5069729;28;20366;-17
2022/08/07 03:04:31;;;;;;;3.40;2.90;;;;;;;;;;5068584;28;20221;-17
2022/08/07 03:06:58;;;;;;;3.95;3.13;;;;;;;;;;5069632;28;20924;-17
2022/08/07 03:09:33;;;;;;;4.18;3.05;;;;;;;;;;5069589;28;20236;-17
2022/08/07 03:12:13;;;;;;;4.25;3.00;;;;;;;;;;5069359;28;20233;-17
2022/08/07 03:14:49;;;;;;;4.43;2.90;;;;;;;;;;5068597;28;20229;-17
2022/08/07 03:17:18;;;;;;;5.55;3.33;;;;;;;;;;5069284;28;20233;-17
2022/08/07 03:19:48;;;;;;;3.20;2.90;;;;;;;;;;5069497;28;20716;-17
2022/08/07 03:22:21;;;;;;;5.47;3.30;;;;;;;;;;5069578;28;20332;-17
2022/08/07 03:24:50;;;;;;;4.20;3.00;;;;;;;;;;5069655;28;20233;-17
2022/08/07 03:27:19;;;;;;;4.20;2.88;;;;;;;;;;5069919;28;20225;-17
2022/08/07 03:30:07;;;;;;;3.78;2.88;;;;;;;;;;5073051;28;20233;-17
2022/08/07 03:32:38;;;;;;;3.08;2.63;;;;;;;;;;5072284;28;20237;-17
2022/08/07 03:35:16;;;;;;;5.22;3.17;;;;;;;;;;5072860;28;20233;-17
2022/08/07 03:37:53;;;;;;;4.90;2.60;;;;;;;;;;5071987;28;20968;-17
2022/08/07 03:40:21;;;;;;;4.60;3.42;;;;;;;;;;5072717;28;20700;-17
2022/08/07 03:42:50;;;;;;;4.00;3.40;;;;;;;;;;5072382;28;20230;-17
2022/08/07 03:45:18;;;;;;;4.60;3.33;;;;;;;;;;5072769;28;20316;-17
2022/08/07 03:47:57;;;;;;;3.85;2.97;;;;;;;;;;5071593;28;20236;-17
2022/08/07 03:50:25;;;;;;;3.33;3.03;;;;;;;;;;5072602;28;20233;-17
2022/08/07 03:52:54;;;;;;;3.20;2.90;;;;;;;;;;5072429;28;20272;-17
2022/08/07 03:55:23;;;;;;;6.68;3.33;;;;;;;;;;5072256;28;20364;-17
2022/08/07 03:58:12;;;;;;;3.70;3.03;;;;;;;;;;5071491;28;20229;-17
2022/08/07 04:00:59;;;;;;;3.70;3.10;;;;;;;;;;5072383;28;20237;-17
2022/08/07 04:03:26;;;;;;;4.38;3.30;;;;;;;;;;5071798;28;20226;-17
2022/08/07 04:06:14;;;;;;;3.83;3.40;;;;;;;;;;5072689;28;20229;-17
2022/08/07 04:09:01;;;;;;;4.18;3.30;;;;;;;;;;5059104;28;20320;-17
2022/08/07 04:11:30;;;;;;;3.90;3.13;;;;;;;;;;5078350;28;20238;-17
2022/08/07 04:14:19;;;;;;;3.45;3.15;;;;;;;;;;5059997;28;20222;-17
2022/08/07 04:17:05;;;;;;;3.90;3.50;;;;;;;;;;5071650;28;20236;-17
2022/08/07 04:19:46;;;;;;;3.83;3.38;;;;;;;;;;5071992;28;20597;-17
2022/08/07 04:22:21;;;;;;;4.32;3.30;;;;;;;;;;5070819;28;20237;-17
2022/08/07 04:24:49;;;;;;;4.38;3.63;;;;;;;;;;5072093;28;20232;-17
2022/08/07 04:27:17;;;;;;;4.45;3.75;;;;;;;;;;5071569;28;20244;-16
2022/08/07 04:29:53;;;;;;;4.00;3.55;;;;;;;;;;5071786;28;20236;-17
2022/08/07 04:32:29;;;;;;;6.03;4.03;;;;;;;;;;5070938;28;20248;-17
2022/08/07 04:35:01;;;;;;;4.82;3.70;;;;;;;;;;5058744;28;20252;-17
2022/08/07 04:37:31;;;;;;;5.15;3.83;;;;;;;;;;5071848;28;20229;-17
2022/08/07 04:40:19;;;;;;;4.47;3.90;;;;;;;;;;5070826;28;20716;-17
2022/08/07 04:42:46;;;;;;;4.70;3.92;;;;;;;;;;5070992;28;20235;-17
2022/08/07 04:45:20;;;;;;;4.28;3.83;;;;;;;;;;5071891;28;20232;-17
2022/08/07 04:48:08;;;;;;;4.28;3.80;;;;;;;;;;5071767;28;20241;-17
2022/08/07 04:50:37;;;;;;;4.80;3.72;;;;;;;;;;5071466;28;20694;-17
2022/08/07 04:53:07;;;;;;;4.93;4.40;;;;;;;;;;5071165;28;20230;-17
2022/08/07 04:55:44;;;;;;;7.80;4.25;;;;;;;;;;5060917;28;20287;-17
2022/08/07 04:58:31;;;;;;;6.45;4.20;;;;;;;;;;5071462;28;20237;-17
2022/08/07 05:01:22;;;;;;;5.30;4.78;;;;;;;;;;5071272;28;20273;-17
2022/08/07 05:04:00;;;;;;;5.82;4.60;;;;;;;;;;5065081;28;20229;-17
2022/08/07 05:06:35;;;;;;;6.60;4.57;;;;;;;;;;5071170;28;20257;-17
2022/08/07 05:09:10;;;;;;;5.55;4.43;;;;;;;;;;5070997;28;20256;-17
2022/08/07 05:11:39;;;;;;;5.22;4.18;;;;;;;;;;5071272;28;21018;-17
2022/08/07 05:14:26;;;;;;;5.18;4.47;;;;;;;;;;5061922;28;20230;-17
2022/08/07 05:17:15;;;;;;;6.15;4.65;;;;;;;;;;5069049;28;20229;-17
2022/08/07 05:20:03;;;;;;;5.70;5.10;;;;;;;;;;5071272;28;20225;-17
2022/08/07 05:22:36;;;;;;;7.03;4.90;;;;;;;;;;5070995;28;20249;-17
2022/08/07 05:25:03;;;;;;;6.05;5.15;;;;;;;;;;5071089;28;20229;-17
2022/08/07 05:27:35;;;;;;;7.57;4.75;;;;;;;;;;5070360;28;20280;-17
2022/08/07 05:30:22;;;;;;;6.78;4.63;;;;;;;;;;5070982;28;20244;-17
2022/08/07 05:33:00;;;;;;;6.95;5.07;;;;;;;;;;5070475;28;20257;-17
2022/08/07 05:35:29;;;;;;;7.05;4.88;;;;;;;;;;5070800;28;20233;-17
2022/08/07 05:38:08;;;;;;;8.30;5.88;;;;;;;;;;5070127;28;20563;-16
2022/08/07 05:40:36;;;;;;;8.50;6.20;;;;;;;;;;5071000;28;20241;-17
2022/08/07 05:43:17;;;;;;;8.40;5.70;;;;;;;;;;5070691;28;20241;-17
2022/08/07 05:45:44;;;;;;;7.85;5.78;;;;;;;;;;5070683;28;20692;-17
2022/08/07 05:48:15;;;;;;;8.27;5.85;;;;;;;;;;5069993;28;20236;-17
2022/08/07 05:50:43;;;;;;;9.13;6.03;;;;;;;;;;5070033;28;20237;-17
2022/08/07 05:53:10;;;;;;;6.88;5.80;;;;;;;;;;5070496;28;20229;-17
2022/08/07 05:55:58;;;;;;;7.63;6.07;;;;;;;;;;5070812;28;20244;-17
2022/08/07 05:58:31;;;;;;;12.07;6.00;;;;;;;;;;5070479;28;20233;-17
2022/08/07 06:01:03;;;;;;;8.85;5.57;;;;;;;;;;5069604;28;20310;-17
2022/08/07 06:03:33;;;;;;;8.52;5.60;;;;;;;;;;5065960;28;21076;-17
2022/08/07 06:06:21;;;;;;;9.05;5.85;;;;;;;;;;5059354;28;20232;-17
2022/08/07 06:08:55;;;;;;;7.65;5.88;;;;;;;;;;5064284;28;20233;-17
2022/08/07 06:11:24;;;;;;;10.15;6.13;;;;;;;;;;5062724;28;20323;-17
2022/08/07 06:13:52;;;;;;;6.68;5.45;;;;;;;;;;5067939;28;20228;-17
2022/08/07 06:16:39;;;;;;;8.05;5.63;;;;;;;;;;5058927;28;20233;-17
2022/08/07 06:19:08;;;;;;;7.95;6.05;;;;;;;;;;5057389;28;20233;-17
2022/08/07 06:21:44;;;;;;;9.20;6.03;;;;;;;;;;5055918;28;20237;-17
2022/08/07 06:24:31;;;;;;;7.80;5.80;;;;;;;;;;5053650;28;20225;-17
2022/08/07 06:27:20;;;;;;;8.50;5.97;;;;;;;;;;5061905;28;20252;-17
2022/08/07 06:30:08;;;;;;;6.07;5.30;;;;;;;;;;5058790;28;20234;-17
2022/08/07 06:32:55;;;;;;;10.90;5.80;;;;;;;;;;5058909;28;20233;-17
2022/08/07 06:35:25;;;;;;;9.60;5.80;;;;;;;;;;5070009;28;20398;-17
2022/08/07 06:38:12;;;;;;;9.15;5.70;;;;;;;;;;5070154;28;20236;-16
2022/08/07 06:40:47;;;;;;;7.80;5.38;;;;;;;;;;5069475;28;20698;-17
2022/08/07 06:43:14;;;;;;;6.53;5.43;;;;;;;;;;5068904;28;20241;-17
2022/08/07 06:45:48;;;;;;;8.77;5.40;;;;;;;;;;5069768;28;20253;-17
2022/08/07 06:48:15;;;;;;;10.48;5.50;;;;;;;;;;5069719;28;20606;-17
2022/08/07 06:50:52;;;;;;;7.47;5.25;;;;;;;;;;5069900;28;20366;-17
2022/08/07 06:53:20;;;;;;;11.27;5.70;;;;;;;;;;5069696;28;20230;-17
2022/08/07 06:56:08;;;;;;;7.70;5.57;;;;;;;;;;5068884;28;20713;-17
2022/08/07 06:58:42;;;;;;;7.63;5.55;;;;;;;;;;5069676;28;20229;-17
2022/08/07 07:01:29;;;;;;;9.10;5.07;;;;;;;;;;5069847;28;20598;-17
2022/08/07 07:04:10;;;;;;;10.95;5.20;;;;;;;;;;5072824;28;20285;-17
2022/08/07 07:06:59;;;;;;;10.38;5.13;;;;;;;;;;5068669;28;20685;-17
2022/08/07 07:09:28;;;;;;;23.35;5.55;;;;;;;;;;5072825;28;20233;-17
2022/08/07 07:12:00;;;;;;;9.90;5.32;;;;;;;;;;5073441;28;20233;-17
2022/08/07 07:14:41;;;;;;;8.80;4.85;;;;;;;;;;5073591;28;20692;-17
2022/08/07 07:17:10;;;;;;;10.90;4.95;;;;;;;;;;5069282;28;20548;-17
2022/08/07 07:19:58;;;;;;;9.38;5.20;;;;;;;;;;5073761;28;20226;-17
2022/08/07 07:22:27;;;;;;;6.45;5.10;;;;;;;;;;5072347;28;20257;-17
2022/08/07 07:25:06;;;;;;;6.78;4.50;;;;;;;;;;5073035;28;20262;-22
2022/08/07 07:27:54;;;;;;;6.82;4.88;;;;;;;;;;5072059;28;20233;-17
2022/08/07 07:30:36;;;;;;;11.02;4.80;;;;;;;;;;5072549;28;20320;-17
2022/08/07 07:33:06;;;;;;;12.88;4.80;;;;;;;;;;5072724;28;20233;-17
2022/08/07 07:35:34;;;;;;;9.30;4.68;;;;;;;;;;5073087;28;20225;-17
2022/08/07 07:38:23;;;;;;;7.47;4.32;;;;;;;;;;5071574;28;20229;-17
2022/08/07 07:40:50;;;;;;;9.52;4.38;;;;;;;;;;5072451;28;20229;-17
2022/08/07 07:43:19;;;;;;;7.60;4.20;;;;;;;;;;5072318;28;20328;-17
2022/08/07 07:46:06;;;;;;;7.47;4.63;;;;;;;;;;5072719;28;20236;-17
2022/08/07 07:48:54;;;;;;;9.13;4.20;;;;;;;;;;5072475;28;20752;-17
2022/08/07 07:51:35;;;;;;;10.10;4.03;;;;;;;;;;5064841;28;20681;-17
2022/08/07 07:54:24;;;;;;;6.88;4.50;;;;;;;;;;5072297;28;20229;-17
2022/08/07 07:56:52;;;;;;;4.90;4.30;;;;;;;;;;5072327;28;20316;-17
2022/08/07 07:59:23;;;;;;;10.23;4.40;;;;;;;;;;5072855;28;21092;-17
2022/08/07 08:02:11;;;;;;;6.28;3.92;;;;;;;;;;5070997;28;20245;-17
2022/08/07 08:04:59;;;;;;;6.45;4.15;;;;;;;;;;5058516;28;20233;-17
2022/08/07 08:07:28;;;;;;;9.48;4.45;;;;;;;;;;5068482;28;20653;-17
2022/08/07 08:10:10;;;;;;;6.25;3.70;;;;;;;;;;5072070;28;20257;-17
2022/08/07 08:12:57;;;;;;;9.02;4.13;;;;;;;;;;5067960;28;20244;-17
2022/08/07 08:15:26;;;;;;;6.53;4.18;;;;;;;;;;5058959;28;20230;-17
2022/08/07 08:18:14;;;;;;;7.80;3.80;;;;;;;;;;5068265;28;20688;-17
2022/08/07 08:20:44;;;;;;;7.35;3.95;;;;;;;;;;5065182;28;20255;-17
2022/08/07 08:28:52;;;;;;;4.10;3.08;;;;;;;;;;5063141;28;20943;-17
2022/08/07 08:31:22;;;;;;;6.13;3.38;;;;;;;;;;5071926;28;20234;-17
2022/08/07 08:34:09;;;;;;;10.02;3.28;;;;;;;;;;5071460;28;20236;-17
2022/08/07 08:36:53;;;;;;;7.15;3.50;;;;;;;;;;5070674;28;20229;-17
2022/08/07 08:39:24;;;;;;;6.25;2.88;;;;;;;;;;5055982;28;20238;-17
2022/08/07 08:42:11;;;;;;;9.35;3.50;;;;;;;;;;5071044;28;20252;-17
2022/08/07 08:44:39;;;;;;;7.70;2.85;;;;;;;;;;5061922;28;20233;-17
2022/08/07 08:47:14;;;;;;;9.13;3.30;;;;;;;;;;5070977;28;20688;-17
2022/08/07 08:49:44;;;;;;;7.18;2.90;;;;;;;;;;5061373;28;20433;-17
2022/08/07 08:52:31;;;;;;;9.23;3.15;;;;;;;;;;5070469;28;20687;-17
2022/08/07 08:55:04;;;;;;;12.18;3.42;;;;;;;;;;5071396;28;20329;-17
2022/08/07 08:57:37;;;;;;;6.55;3.15;;;;;;;;;;5071273;28;21022;-17
2022/08/07 09:00:05;;;;;;;4.47;2.88;;;;;;;;;;5071690;28;20351;-17
2022/08/07 09:02:34;;;;;;;8.27;3.10;;;;;;;;;;5070635;28;20567;-17
2022/08/07 09:05:09;;;;;;;3.95;2.80;;;;;;;;;;5071234;28;20229;-17
2022/08/07 09:07:42;;;;;;;5.53;2.80;;;;;;;;;;5070630;28;20310;-17
2022/08/07 09:10:25;;;;;;;9.55;2.90;;;;;;;;;;5071549;28;20241;-17
2022/08/07 09:12:56;;;;;;;5.78;2.90;;;;;;;;;;5070792;28;20816;-17
2022/08/07 09:15:28;;;;;;;7.68;2.75;;;;;;;;;;5071223;28;21107;-17
2022/08/07 09:18:23;;;;;;;4.78;2.80;;;;;;;;;;5070711;28;20231;-17
2022/08/07 09:20:54;;;;;;;9.20;2.95;;;;;;;;;;5070877;28;20225;-17
2022/08/07 09:23:31;;;;;;;5.78;2.65;;;;;;;;;;5070658;28;20251;-16
2022/08/07 09:26:21;;;;;;;8.60;2.60;;;;;;;;;;5069835;28;20425;-17
2022/08/07 09:28:52;;;;;;;8.48;2.70;;;;;;;;;;5069797;28;20421;-17
2022/08/07 09:31:42;;;;;;;6.53;2.58;;;;;;;;;;5070441;28;20230;-17
2022/08/07 09:34:16;;;;;;;6.13;2.15;;;;;;;;;;5071222;28;20295;-17
2022/08/07 09:36:47;;;;;;;25.58;3.10;;;;;;;;;;5063265;28;20262;-17
2022/08/07 09:39:20;;;;;;;7.63;2.60;;;;;;;;;;5051159;28;20262;-17
2022/08/07 09:42:08;;;;;;;4.72;2.40;;;;;;;;;;5068942;28;20240;-17
2022/08/07 09:44:48;;;;;;;7.32;2.63;;;;;;;;;;5070291;28;20790;-15
2022/08/07 09:47:37;;;;;;;7.80;2.10;;;;;;;;;;5070046;28;20230;-16
2022/08/07 09:50:25;;;;;;;5.38;2.50;;;;;;;;;;5065909;28;20230;-16
2022/08/07 09:52:57;;;;;;;5.18;2.35;;;;;;;;;;5069519;28;20237;-16
2022/08/07 09:55:29;;;;;;;5.70;2.30;;;;;;;;;;5062840;28;20230;-16
2022/08/07 09:58:25;;;;;;;4.03;2.08;;;;;;;;;;5054802;28;20233;-16
2022/08/07 10:01:07;;;;;;;4.22;2.00;;;;;;;;;;5066795;28;20386;-16
2022/08/07 10:03:59;;;;;;;3.38;2.20;;;;;;;;;;5065242;28;20241;-17
2022/08/07 10:06:46;;;;;;;6.93;2.08;;;;;;;;;;5058949;28;20237;-17
2022/08/07 10:09:25;;;;;;;2.58;1.83;;;;;;;;;;5069380;28;20230;-17
2022/08/07 10:12:16;;;;;;;5.38;2.10;;;;;;;;;;5064150;28;20639;-17
2022/08/07 10:15:05;;;;;;;4.45;2.03;;;;;;;;;;5061198;28;20241;-18
2022/08/07 10:17:47;;;;;;;4.35;2.45;;;;;;;;;;5071883;28;20228;-17
2022/08/07 10:20:32;;;;;;;8.65;2.20;;;;;;;;;;5069489;28;20240;-17
2022/08/07 10:23:03;;;;;;;3.22;2.08;;;;;;;;;;5066196;28;20295;-17
2022/08/07 10:25:36;;;;;;;5.47;2.17;;;;;;;;;;5065818;28;20244;-17
2022/08/07 10:28:22;;;;;;;3.65;2.17;;;;;;;;;;5068029;28;20672;-17
2022/08/07 10:30:53;;;;;;;14.85;2.13;;;;;;;;;;5064962;28;20255;-17
2022/08/07 10:33:22;;;;;;;9.43;2.10;;;;;;;;;;5071379;28;20244;-17
2022/08/07 10:36:31;;;;;;;7.03;2.75;;;;;;;;;;5063977;28;20244;-17
2022/08/07 10:39:05;;;;;;;4.03;2.00;;;;;;;;;;5059137;28;20233;-17
2022/08/07 10:41:35;;;;;;;8.73;1.92;;;;;;;;;;5065873;28;20314;-17
2022/08/07 10:44:23;;;;;;;5.57;2.00;;;;;;;;;;5058003;28;20430;-18
2022/08/07 10:47:05;;;;;;;3.97;2.10;;;;;;;;;;5060335;28;20264;-18
2022/08/07 10:49:40;;;;;;;5.28;2.25;;;;;;;;;;5065805;28;20646;-17
2022/08/07 10:52:21;;;;;;;7.90;2.22;;;;;;;;;;5060984;28;20486;-17
2022/08/07 10:55:02;;;;;;;5.72;1.92;;;;;;;;;;5067082;28;20233;-17
2022/08/07 10:57:55;;;;;;;8.33;2.23;;;;;;;;;;5064662;28;20436;-17
2022/08/07 11:00:23;;;;;;;8.15;2.15;;;;;;;;;;5061148;28;21059;-17
2022/08/07 11:03:11;;;;;;;4.75;1.90;;;;;;;;;;5065313;28;20235;-17
2022/08/07 11:05:42;;;;;;;6.03;2.28;;;;;;;;;;5063593;28;20236;-17
2022/08/07 11:08:19;;;;;;;6.80;1.85;;;;;;;;;;5068588;28;20622;-17
2022/08/07 11:10:58;;;;;;;12.63;2.30;;;;;;;;;;5079709;28;20302;-17
2022/08/07 11:13:31;;;;;;;6.22;2.00;;;;;;;;;;5066661;28;20237;-17
2022/08/07 11:16:19;;;;;;;10.60;2.42;;;;;;;;;;5070139;28;20226;-17
2022/08/07 11:18:56;;;;;;;3.95;1.90;;;;;;;;;;5065535;28;20241;-16
2022/08/07 11:21:29;;;;;;;4.93;2.00;;;;;;;;;;5067679;28;20236;-16
2022/08/07 11:24:01;;;;;;;8.10;2.17;;;;;;;;;;5059897;28;20234;-16
2022/08/07 11:26:31;;;;;;;7.57;2.15;;;;;;;;;;5065898;28;20247;-16
2022/08/07 11:29:01;;;;;;;10.55;1.90;;;;;;;;;;5064204;28;20429;-16
2022/08/07 11:31:42;;;;;;;6.20;1.80;;;;;;;;;;5065208;28;20287;-17
2022/08/07 11:34:14;;;;;;;6.85;2.00;;;;;;;;;;5059243;28;20727;-18
2022/08/07 11:36:45;;;;;;;5.30;1.70;;;;;;;;;;5064415;28;20241;-17
2022/08/07 11:39:20;;;;;;;5.70;1.70;;;;;;;;;;5066842;28;20230;-18
2022/08/07 11:41:51;;;;;;;3.83;1.60;;;;;;;;;;5066225;28;20225;-18
2022/08/07 11:44:32;;;;;;;3.47;1.90;;;;;;;;;;5068778;28;20903;-18
2022/08/07 11:47:01;;;;;;;4.72;1.80;;;;;;;;;;5055289;28;20325;-17
2022/08/07 11:49:40;;;;;;;5.32;1.77;;;;;;;;;;5068398;28;20253;-18
2022/08/07 11:52:33;;;;;;;2.95;2.00;;;;;;;;;;5062248;28;20669;-17
2022/08/07 11:55:08;;;;;;;8.98;2.20;;;;;;;;;;5070259;28;20690;-18
2022/08/07 11:57:47;;;;;;;3.30;1.73;;;;;;;;;;5067726;28;20260;-17
2022/08/07 12:00:30;;;;;;;7.88;1.80;;;;;;;;;;5065939;28;21050;-18
2022/08/07 12:03:04;;;;;;;4.43;2.10;;;;;;;;;;5062717;28;20283;-17
2022/08/07 12:05:40;;;;;;;4.85;1.73;;;;;;;;;;5067867;28;20710;-17
2022/08/07 12:08:16;;;;;;;11.65;1.83;;;;;;;;;;5067106;28;20272;-18
2022/08/07 12:11:00;;;;;;;4.72;1.73;;;;;;;;;;5068163;28;20230;-17
2022/08/07 12:13:49;;;;;;;8.50;1.90;;;;;;;;;;5064726;28;20620;-17
2022/08/07 12:16:19;;;;;;;5.72;2.05;;;;;;;;;;5069943;28;20323;-17
2022/08/07 12:18:57;;;;;;;2.95;2.10;;;;;;;;;;5064340;28;20325;-17
2022/08/07 12:21:29;;;;;;;3.13;2.08;;;;;;;;;;5067515;28;20265;-18
2022/08/07 12:24:17;;;;;;;3.90;1.77;;;;;;;;;;5069317;28;20237;-16
2022/08/07 12:27:08;;;;;;;5.50;1.90;;;;;;;;;;5064739;28;20514;-18
2022/08/07 12:29:46;;;;;;;5.20;2.20;;;;;;;;;;5061704;28;21904;-17
2022/08/07 12:32:19;;;;;;;2.38;1.92;;;;;;;;;;5063274;28;20230;-17
2022/08/07 12:34:47;;;;;;;12.30;2.00;;;;;;;;;;5066258;28;20222;-17
2022/08/07 12:37:21;;;;;;;5.40;1.83;;;;;;;;;;5061217;28;20417;-17
2022/08/07 12:40:09;;;;;;;11.85;2.15;;;;;;;;;;5059450;28;20230;-18
2022/08/07 12:43:00;;;;;;;3.10;1.90;;;;;;;;;;5062839;28;20229;-17
2022/08/07 12:45:30;;;;;;;7.00;2.15;;;;;;;;;;5070186;28;20237;-17
2022/08/07 12:47:59;;;;;;;4.13;1.90;;;;;;;;;;5076698;28;20225;-17
2022/08/07 12:50:34;;;;;;;3.95;2.20;;;;;;;;;;5071431;28;20638;-17
2022/08/07 12:53:17;;;;;;;4.05;1.95;;;;;;;;;;5056625;28;20261;-17
2022/08/07 12:55:50;;;;;;;4.43;1.95;;;;;;;;;;5071481;28;20241;-17
2022/08/07 12:58:33;;;;;;;4.63;1.70;;;;;;;;;;5070522;28;20240;-18
2022/08/07 13:01:03;;;;;;;3.35;1.88;;;;;;;;;;5070621;28;20295;-17
2022/08/07 13:03:44;;;;;;;3.22;1.83;;;;;;;;;;5071660;28;20232;-17
2022/08/07 13:06:35;;;;;;;3.80;1.80;;;;;;;;;;5070965;28;20315;-17
2022/08/07 13:09:22;;;;;;;2.88;1.85;;;;;;;;;;5070298;28;20226;-17
2022/08/07 13:12:11;;;;;;;2.10;1.65;;;;;;;;;;5070919;28;20727;-17
2022/08/07 13:14:46;;;;;;;4.63;1.90;;;;;;;;;;5070898;28;20233;-17
2022/08/07 13:17:20;;;;;;;5.03;2.13;;;;;;;;;;5070861;28;20308;-17
2022/08/07 13:20:08;;;;;;;5.85;2.05;;;;;;;;;;5070165;28;20283;-17
2022/08/07 13:22:38;;;;;;;4.53;2.13;;;;;;;;;;5070524;28;20245;-17
2022/08/07 13:25:09;;;;;;;3.45;1.80;;;;;;;;;;5060747;28;20475;-17
2022/08/07 13:27:43;;;;;;;6.47;2.40;;;;;;;;;;5063913;28;20233;-17
2022/08/07 13:30:32;;;;;;;5.68;2.05;;;;;;;;;;5062474;28;20233;-17
2022/08/07 13:33:09;;;;;;;5.03;2.47;;;;;;;;;;5069466;28;21063;-17
2022/08/07 13:35:57;;;;;;;8.48;2.10;;;;;;;;;;5058224;28;20231;-17
2022/08/07 13:38:28;;;;;;;3.47;2.30;;;;;;;;;;5062669;28;20285;-17
2022/08/07 13:40:57;;;;;;;6.65;2.20;;;;;;;;;;5054495;28;20229;-17
2022/08/07 13:43:26;;;;;;;4.80;2.20;;;;;;;;;;5058389;28;20450;-17
2022/08/07 13:45:55;;;;;;;5.72;2.38;;;;;;;;;;5064817;28;20471;-17
2022/08/07 13:48:44;;;;;;;4.95;2.25;;;;;;;;;;5056466;28;20422;-17
2022/08/07 13:51:25;;;;;;;11.23;2.40;;;;;;;;;;5063381;28;20238;-17
2022/08/07 13:54:15;;;;;;;5.97;2.22;;;;;;;;;;5060311;28;20226;-17
2022/08/07 13:56:52;;;;;;;5.68;2.45;;;;;;;;;;5054311;28;20232;-17
2022/08/07 13:59:26;;;;;;;7.75;2.25;;;;;;;;;;5062332;28;20314;-17
2022/08/07 14:01:56;;;;;;;4.57;2.15;;;;;;;;;;5063661;28;20238;-17
2022/08/07 14:04:31;;;;;;;4.07;2.35;;;;;;;;;;5061012;28;20320;-17
2022/08/07 14:07:04;;;;;;;3.03;2.10;;;;;;;;;;5070064;28;20685;-17
2022/08/07 14:09:38;;;;;;;3.60;2.38;;;;;;;;;;5070359;28;20666;-17
2022/08/07 14:12:28;;;;;;;4.85;2.20;;;;;;;;;;5069354;28;20234;-17
2022/08/07 14:14:59;;;;;;;2.60;2.10;;;;;;;;;;5069361;28;20240;-17
2022/08/07 14:17:29;;;;;;;3.80;2.25;;;;;;;;;;5069939;28;21009;-17
2022/08/07 14:20:18;;;;;;;3.95;2.42;;;;;;;;;;5070136;28;20226;-17
2022/08/07 14:23:12;;;;;;;5.35;2.35;;;;;;;;;;5069761;28;20245;-17
2022/08/07 14:25:44;;;;;;;2.90;2.28;;;;;;;;;;5069654;28;20291;-17
2022/08/07 14:28:17;;;;;;;4.03;2.78;;;;;;;;;;5069456;28;20232;-17
2022/08/07 14:30:45;;;;;;;3.33;2.28;;;;;;;;;;5069840;28;20304;-17
2022/08/07 14:33:19;;;;;;;5.45;2.30;;;;;;;;;;5069750;28;21020;-16
2022/08/07 14:35:49;;;;;;;4.93;2.30;;;;;;;;;;5070321;28;20226;-17
2022/08/07 14:38:23;;;;;;;3.90;2.50;;;;;;;;;;5069284;28;20256;-17
2022/08/07 14:40:59;;;;;;;2.88;2.20;;;;;;;;;;5057082;28;20244;-17
2022/08/07 14:43:30;;;;;;;4.20;2.20;;;;;;;;;;5069854;28;20229;-17
2022/08/07 14:46:19;;;;;;;4.40;2.30;;;;;;;;;;5069927;28;20240;-17
2022/08/07 14:48:59;;;;;;;2.40;2.20;;;;;;;;;;5069042;28;20225;-17
2022/08/07 14:51:46;;;;;;;6.63;2.28;;;;;;;;;;5064689;28;20240;-17
2022/08/07 14:54:34;;;;;;;2.33;1.92;;;;;;;;;;5063927;28;20225;-17
2022/08/07 14:57:22;;;;;;;2.97;2.10;;;;;;;;;;5070079;28;20344;-17
2022/08/07 14:59:49;;;;;;;3.65;2.10;;;;;;;;;;5069377;28;20241;-17
2022/08/07 15:02:32;;;;;;;3.58;2.08;;;;;;;;;;5059313;28;20696;-17
2022/08/07 15:05:02;;;;;;;2.67;1.80;;;;;;;;;;5069740;28;20237;-17
2022/08/07 15:07:30;;;;;;;2.67;1.90;;;;;;;;;;5069531;28;20707;-17
2022/08/07 15:10:17;;;;;;;2.42;2.03;;;;;;;;;;5068800;28;20232;-17
2022/08/07 15:12:52;;;;;;;1.85;1.75;;;;;;;;;;5069528;28;20303;-17
2022/08/07 15:15:23;;;;;;;2.22;2.03;;;;;;;;;;5065910;28;20236;-17
2022/08/07 15:17:53;;;;;;;4.93;2.00;;;;;;;;;;5058844;28;20230;-17
2022/08/07 15:20:23;;;;;;;2.67;2.00;;;;;;;;;;5066541;28;20321;-17
2022/08/07 15:23:01;;;;;;;5.70;2.55;;;;;;;;;;5068914;28;20253;-17
2022/08/07 15:25:51;;;;;;;4.50;2.00;;;;;;;;;;5073346;28;20241;-17
2022/08/07 15:28:21;;;;;;;5.25;2.00;;;;;;;;;;5065357;28;20564;-17
2022/08/07 15:31:09;;;;;;;3.38;2.03;;;;;;;;;;5068425;28;20229;-17
2022/08/07 15:33:40;;;;;;;4.45;2.10;;;;;;;;;;5067027;28;20291;-17
2022/08/07 15:36:10;;;;;;;5.72;2.30;;;;;;;;;;5072584;28;20286;-17
2022/08/07 15:38:38;;;;;;;3.05;2.30;;;;;;;;;;5072852;28;20766;-17
2022/08/07 15:41:26;;;;;;;3.25;2.15;;;;;;;;;;5069597;28;20260;-17
2022/08/07 15:44:14;;;;;;;6.93;2.20;;;;;;;;;;5072127;28;20226;-17
2022/08/07 15:46:43;;;;;;;8.18;2.67;;;;;;;;;;5072127;28;20245;-17